sensor_id;sensor_type;location;lat;lon;timestamp;P1;durP1;ratioP1;P2;durP2;ratioP2
27925;SDS011;15267;47.838;12.128;2023-07-31T00:00:37;4.40;;;2.42;;
27925;SDS011;15267;47.838;12.128;2023-07-31T00:03:03;3.30;;;2.50;;
27925;SDS011;15267;47.838;12.128;2023-07-31T00:05:28;6.38;;;2.40;;
27925;SDS011;15267;47.838;12.128;2023-07-31T00:07:54;6.10;;;2.28;;
27925;SDS011;15267;47.838;12.128;2023-07-31T00:10:20;5.30;;;2.40;;
27925;SDS011;15267;47.838;12.128;2023-07-31T00:12:46;3.30;;;2.00;;
27925;SDS011;15267;47.838;12.128;2023-07-31T00:15:13;5.45;;;2.10;;
27925;SDS011;15267;47.838;12.128;2023-07-31T00:17:39;3.72;;;2.13;;
27925;SDS011;15267;47.838;12.128;2023-07-31T00:20:05;3.67;;;1.95;;
27925;SDS011;15267;47.838;12.128;2023-07-31T00:22:31;4.75;;;2.15;;
27925;SDS011;15267;47.838;12.128;2023-07-31T00:24:57;4.53;;;1.90;;
27925;SDS011;15267;47.838;12.128;2023-07-31T00:27:24;5.82;;;1.90;;
27925;SDS011;15267;47.838;12.128;2023-07-31T00:29:50;3.42;;;2.00;;
27925;SDS011;15267;47.838;12.128;2023-07-31T00:32:17;4.65;;;2.20;;
27925;SDS011;15267;47.838;12.128;2023-07-31T00:34:43;7.88;;;2.20;;
27925;SDS011;15267;47.838;12.128;2023-07-31T00:37:09;4.30;;;2.20;;
27925;SDS011;15267;47.838;12.128;2023-07-31T00:39:35;5.03;;;2.20;;
27925;SDS011;15267;47.838;12.128;2023-07-31T00:42:01;7.88;;;2.28;;
27925;SDS011;15267;47.838;12.128;2023-07-31T00:44:27;5.55;;;2.13;;
27925;SDS011;15267;47.838;12.128;2023-07-31T00:46:53;4.70;;;2.10;;
27925;SDS011;15267;47.838;12.128;2023-07-31T00:49:20;3.85;;;2.20;;
27925;SDS011;15267;47.838;12.128;2023-07-31T00:51:46;2.65;;;1.92;;
27925;SDS011;15267;47.838;12.128;2023-07-31T00:54:12;7.00;;;2.28;;
27925;SDS011;15267;47.838;12.128;2023-07-31T00:56:38;5.38;;;2.17;;
27925;SDS011;15267;47.838;12.128;2023-07-31T00:59:04;5.25;;;2.42;;
27925;SDS011;15267;47.838;12.128;2023-07-31T01:01:30;5.32;;;2.08;;
27925;SDS011;15267;47.838;12.128;2023-07-31T01:03:56;4.65;;;2.30;;
27925;SDS011;15267;47.838;12.128;2023-07-31T01:08:54;4.45;;;2.00;;
27925;SDS011;15267;47.838;12.128;2023-07-31T01:11:33;7.68;;;2.20;;
27925;SDS011;15267;47.838;12.128;2023-07-31T01:14:00;6.20;;;2.30;;
27925;SDS011;15267;47.838;12.128;2023-07-31T01:16:26;6.05;;;1.95;;
27925;SDS011;15267;47.838;12.128;2023-07-31T01:18:52;4.32;;;2.30;;
27925;SDS011;15267;47.838;12.128;2023-07-31T01:26:49;5.68;;;2.08;;
27925;SDS011;15267;47.838;12.128;2023-07-31T01:31:51;6.22;;;2.17;;
27925;SDS011;15267;47.838;12.128;2023-07-31T01:34:19;4.78;;;2.40;;
27925;SDS011;15267;47.838;12.128;2023-07-31T01:36:46;5.63;;;2.35;;
27925;SDS011;15267;47.838;12.128;2023-07-31T01:39:12;4.43;;;2.28;;
27925;SDS011;15267;47.838;12.128;2023-07-31T01:41:38;4.05;;;2.40;;
27925;SDS011;15267;47.838;12.128;2023-07-31T01:44:04;5.85;;;2.30;;
27925;SDS011;15267;47.838;12.128;2023-07-31T01:46:30;4.80;;;1.90;;
27925;SDS011;15267;47.838;12.128;2023-07-31T01:48:56;5.63;;;2.35;;
27925;SDS011;15267;47.838;12.128;2023-07-31T01:51:22;10.15;;;2.25;;
27925;SDS011;15267;47.838;12.128;2023-07-31T01:53:48;6.43;;;2.10;;
27925;SDS011;15267;47.838;12.128;2023-07-31T01:56:14;5.57;;;2.17;;
27925;SDS011;15267;47.838;12.128;2023-07-31T01:58:40;5.38;;;2.45;;
27925;SDS011;15267;47.838;12.128;2023-07-31T02:01:06;4.97;;;2.55;;
27925;SDS011;15267;47.838;12.128;2023-07-31T02:03:32;5.45;;;2.33;;
27925;SDS011;15267;47.838;12.128;2023-07-31T02:05:58;7.18;;;2.50;;
27925;SDS011;15267;47.838;12.128;2023-07-31T02:08:24;9.45;;;2.38;;
27925;SDS011;15267;47.838;12.128;2023-07-31T02:10:51;8.15;;;2.50;;
27925;SDS011;15267;47.838;12.128;2023-07-31T02:13:17;4.88;;;2.13;;
27925;SDS011;15267;47.838;12.128;2023-07-31T02:15:42;6.15;;;2.60;;
27925;SDS011;15267;47.838;12.128;2023-07-31T02:18:08;5.72;;;2.50;;
27925;SDS011;15267;47.838;12.128;2023-07-31T02:20:34;6.55;;;2.45;;
27925;SDS011;15267;47.838;12.128;2023-07-31T02:23:00;4.70;;;2.63;;
27925;SDS011;15267;47.838;12.128;2023-07-31T02:25:27;6.78;;;2.30;;
27925;SDS011;15267;47.838;12.128;2023-07-31T02:27:52;6.00;;;2.40;;
27925;SDS011;15267;47.838;12.128;2023-07-31T02:30:18;7.82;;;2.60;;
27925;SDS011;15267;47.838;12.128;2023-07-31T02:32:44;5.68;;;2.20;;
27925;SDS011;15267;47.838;12.128;2023-07-31T02:35:10;6.50;;;2.25;;
27925;SDS011;15267;47.838;12.128;2023-07-31T02:37:40;4.43;;;2.35;;
27925;SDS011;15267;47.838;12.128;2023-07-31T02:40:06;7.65;;;2.40;;
27925;SDS011;15267;47.838;12.128;2023-07-31T02:42:32;4.28;;;2.28;;
27925;SDS011;15267;47.838;12.128;2023-07-31T02:44:58;4.50;;;2.22;;
27925;SDS011;15267;47.838;12.128;2023-07-31T02:47:24;5.00;;;2.28;;
27925;SDS011;15267;47.838;12.128;2023-07-31T02:49:50;6.95;;;2.60;;
27925;SDS011;15267;47.838;12.128;2023-07-31T02:52:16;6.32;;;2.53;;
27925;SDS011;15267;47.838;12.128;2023-07-31T02:54:42;4.43;;;2.20;;
27925;SDS011;15267;47.838;12.128;2023-07-31T02:57:08;6.13;;;2.20;;
27925;SDS011;15267;47.838;12.128;2023-07-31T02:59:34;5.82;;;2.30;;
27925;SDS011;15267;47.838;12.128;2023-07-31T03:01:59;5.85;;;2.92;;
27925;SDS011;15267;47.838;12.128;2023-07-31T03:04:25;8.07;;;2.80;;
27925;SDS011;15267;47.838;12.128;2023-07-31T03:06:51;5.25;;;2.75;;
27925;SDS011;15267;47.838;12.128;2023-07-31T03:09:17;6.55;;;2.85;;
27925;SDS011;15267;47.838;12.128;2023-07-31T03:11:43;7.50;;;2.90;;
27925;SDS011;15267;47.838;12.128;2023-07-31T03:14:09;4.53;;;2.53;;
27925;SDS011;15267;47.838;12.128;2023-07-31T03:16:35;4.75;;;2.70;;
27925;SDS011;15267;47.838;12.128;2023-07-31T03:19:01;7.63;;;2.72;;
27925;SDS011;15267;47.838;12.128;2023-07-31T03:21:27;6.22;;;2.60;;
27925;SDS011;15267;47.838;12.128;2023-07-31T03:23:53;5.75;;;2.85;;
27925;SDS011;15267;47.838;12.128;2023-07-31T03:26:19;6.65;;;2.78;;
27925;SDS011;15267;47.838;12.128;2023-07-31T03:28:45;3.65;;;2.70;;
27925;SDS011;15267;47.838;12.128;2023-07-31T03:31:11;4.03;;;2.40;;
27925;SDS011;15267;47.838;12.128;2023-07-31T03:33:37;5.72;;;2.58;;
27925;SDS011;15267;47.838;12.128;2023-07-31T03:36:03;6.72;;;2.67;;
27925;SDS011;15267;47.838;12.128;2023-07-31T03:38:29;7.07;;;2.58;;
27925;SDS011;15267;47.838;12.128;2023-07-31T03:40:55;6.45;;;2.60;;
27925;SDS011;15267;47.838;12.128;2023-07-31T03:43:23;4.70;;;2.20;;
27925;SDS011;15267;47.838;12.128;2023-07-31T03:45:50;9.60;;;2.38;;
27925;SDS011;15267;47.838;12.128;2023-07-31T03:48:16;5.80;;;2.40;;
27925;SDS011;15267;47.838;12.128;2023-07-31T03:50:42;5.88;;;2.42;;
27925;SDS011;15267;47.838;12.128;2023-07-31T03:53:08;4.43;;;2.20;;
27925;SDS011;15267;47.838;12.128;2023-07-31T03:55:34;7.60;;;2.47;;
27925;SDS011;15267;47.838;12.128;2023-07-31T03:57:59;6.47;;;2.38;;
27925;SDS011;15267;47.838;12.128;2023-07-31T04:00:26;7.45;;;2.60;;
27925;SDS011;15267;47.838;12.128;2023-07-31T04:02:52;7.50;;;2.33;;
27925;SDS011;15267;47.838;12.128;2023-07-31T04:05:18;3.95;;;2.30;;
27925;SDS011;15267;47.838;12.128;2023-07-31T04:07:44;8.02;;;2.45;;
27925;SDS011;15267;47.838;12.128;2023-07-31T04:10:10;4.90;;;2.40;;
27925;SDS011;15267;47.838;12.128;2023-07-31T04:12:36;6.75;;;2.58;;
27925;SDS011;15267;47.838;12.128;2023-07-31T04:15:02;6.90;;;2.20;;
27925;SDS011;15267;47.838;12.128;2023-07-31T04:17:28;4.20;;;2.28;;
27925;SDS011;15267;47.838;12.128;2023-07-31T04:19:54;4.78;;;2.47;;
27925;SDS011;15267;47.838;12.128;2023-07-31T04:22:20;7.13;;;2.50;;
27925;SDS011;15267;47.838;12.128;2023-07-31T04:24:46;4.90;;;2.47;;
27925;SDS011;15267;47.838;12.128;2023-07-31T04:27:12;6.10;;;2.20;;
27925;SDS011;15267;47.838;12.128;2023-07-31T04:29:38;5.03;;;2.40;;
27925;SDS011;15267;47.838;12.128;2023-07-31T04:32:05;6.07;;;2.95;;
27925;SDS011;15267;47.838;12.128;2023-07-31T04:34:31;5.60;;;2.45;;
27925;SDS011;15267;47.838;12.128;2023-07-31T04:36:57;4.60;;;2.30;;
27925;SDS011;15267;47.838;12.128;2023-07-31T04:39:22;8.30;;;2.45;;
27925;SDS011;15267;47.838;12.128;2023-07-31T04:41:48;6.53;;;2.40;;
27925;SDS011;15267;47.838;12.128;2023-07-31T04:44:14;4.95;;;2.10;;
27925;SDS011;15267;47.838;12.128;2023-07-31T04:46:40;3.90;;;1.92;;
27925;SDS011;15267;47.838;12.128;2023-07-31T04:49:06;5.05;;;2.40;;
27925;SDS011;15267;47.838;12.128;2023-07-31T04:51:32;4.85;;;2.10;;
27925;SDS011;15267;47.838;12.128;2023-07-31T04:53:58;6.47;;;2.33;;
27925;SDS011;15267;47.838;12.128;2023-07-31T04:56:24;4.10;;;2.20;;
27925;SDS011;15267;47.838;12.128;2023-07-31T04:58:50;4.93;;;2.10;;
27925;SDS011;15267;47.838;12.128;2023-07-31T05:01:16;4.88;;;2.13;;
27925;SDS011;15267;47.838;12.128;2023-07-31T05:03:42;3.03;;;1.85;;
27925;SDS011;15267;47.838;12.128;2023-07-31T05:06:08;3.58;;;2.05;;
27925;SDS011;15267;47.838;12.128;2023-07-31T05:08:34;3.40;;;1.80;;
27925;SDS011;15267;47.838;12.128;2023-07-31T05:11:00;6.60;;;2.10;;
27925;SDS011;15267;47.838;12.128;2023-07-31T05:13:26;4.88;;;2.25;;
27925;SDS011;15267;47.838;12.128;2023-07-31T05:15:52;4.32;;;2.10;;
27925;SDS011;15267;47.838;12.128;2023-07-31T05:18:18;4.30;;;2.28;;
27925;SDS011;15267;47.838;12.128;2023-07-31T05:20:44;4.13;;;1.90;;
27925;SDS011;15267;47.838;12.128;2023-07-31T05:23:10;3.92;;;2.20;;
27925;SDS011;15267;47.838;12.128;2023-07-31T05:25:36;4.55;;;1.90;;
27925;SDS011;15267;47.838;12.128;2023-07-31T05:28:02;5.20;;;2.10;;
27925;SDS011;15267;47.838;12.128;2023-07-31T05:30:31;5.07;;;2.25;;
27925;SDS011;15267;47.838;12.128;2023-07-31T05:32:57;3.33;;;1.95;;
27925;SDS011;15267;47.838;12.128;2023-07-31T05:35:23;2.92;;;1.77;;
27925;SDS011;15267;47.838;12.128;2023-07-31T05:37:49;5.32;;;2.30;;
27925;SDS011;15267;47.838;12.128;2023-07-31T05:40:15;7.05;;;2.10;;
27925;SDS011;15267;47.838;12.128;2023-07-31T05:42:41;4.22;;;1.77;;
27925;SDS011;15267;47.838;12.128;2023-07-31T05:45:07;5.20;;;1.95;;
27925;SDS011;15267;47.838;12.128;2023-07-31T05:47:33;4.18;;;1.63;;
27925;SDS011;15267;47.838;12.128;2023-07-31T05:49:59;6.70;;;1.70;;
27925;SDS011;15267;47.838;12.128;2023-07-31T05:52:25;3.53;;;2.10;;
27925;SDS011;15267;47.838;12.128;2023-07-31T05:54:51;3.67;;;2.00;;
27925;SDS011;15267;47.838;12.128;2023-07-31T05:57:17;4.70;;;1.70;;
27925;SDS011;15267;47.838;12.128;2023-07-31T05:59:43;4.28;;;1.92;;
27925;SDS011;15267;47.838;12.128;2023-07-31T06:02:09;3.70;;;1.73;;
27925;SDS011;15267;47.838;12.128;2023-07-31T06:04:35;4.18;;;1.90;;
27925;SDS011;15267;47.838;12.128;2023-07-31T06:07:01;3.25;;;1.73;;
27925;SDS011;15267;47.838;12.128;2023-07-31T06:09:28;3.50;;;1.70;;
27925;SDS011;15267;47.838;12.128;2023-07-31T06:11:54;4.32;;;1.95;;
27925;SDS011;15267;47.838;12.128;2023-07-31T06:14:20;3.00;;;1.70;;
27925;SDS011;15267;47.838;12.128;2023-07-31T06:16:46;5.18;;;1.90;;
27925;SDS011;15267;47.838;12.128;2023-07-31T06:19:12;5.28;;;2.05;;
27925;SDS011;15267;47.838;12.128;2023-07-31T06:21:38;2.58;;;1.75;;
27925;SDS011;15267;47.838;12.128;2023-07-31T06:24:04;6.13;;;2.25;;
27925;SDS011;15267;47.838;12.128;2023-07-31T06:26:30;9.43;;;2.30;;
27925;SDS011;15267;47.838;12.128;2023-07-31T06:28:56;5.80;;;2.40;;
27925;SDS011;15267;47.838;12.128;2023-07-31T06:31:22;7.68;;;2.30;;
27925;SDS011;15267;47.838;12.128;2023-07-31T06:33:49;4.68;;;2.30;;
27925;SDS011;15267;47.838;12.128;2023-07-31T06:36:15;4.95;;;2.30;;
27925;SDS011;15267;47.838;12.128;2023-07-31T06:38:41;4.97;;;2.05;;
27925;SDS011;15267;47.838;12.128;2023-07-31T06:41:07;8.88;;;2.38;;
27925;SDS011;15267;47.838;12.128;2023-07-31T06:43:33;4.60;;;2.20;;
27925;SDS011;15267;47.838;12.128;2023-07-31T06:46:04;4.35;;;2.20;;
27925;SDS011;15267;47.838;12.128;2023-07-31T06:48:30;5.30;;;2.30;;
27925;SDS011;15267;47.838;12.128;2023-07-31T06:50:56;3.53;;;1.98;;
27925;SDS011;15267;47.838;12.128;2023-07-31T06:53:22;4.60;;;2.33;;
27925;SDS011;15267;47.838;12.128;2023-07-31T06:55:48;5.10;;;2.20;;
27925;SDS011;15267;47.838;12.128;2023-07-31T06:58:16;6.10;;;2.28;;
27925;SDS011;15267;47.838;12.128;2023-07-31T07:00:42;3.47;;;2.20;;
27925;SDS011;15267;47.838;12.128;2023-07-31T07:03:08;6.22;;;2.83;;
27925;SDS011;15267;47.838;12.128;2023-07-31T07:05:34;5.00;;;2.35;;
27925;SDS011;15267;47.838;12.128;2023-07-31T07:08:00;4.90;;;2.05;;
27925;SDS011;15267;47.838;12.128;2023-07-31T07:10:26;6.57;;;2.25;;
27925;SDS011;15267;47.838;12.128;2023-07-31T07:12:52;7.35;;;2.00;;
27925;SDS011;15267;47.838;12.128;2023-07-31T07:15:19;4.05;;;2.17;;
27925;SDS011;15267;47.838;12.128;2023-07-31T07:17:45;7.65;;;2.08;;
27925;SDS011;15267;47.838;12.128;2023-07-31T07:20:11;4.38;;;2.15;;
27925;SDS011;15267;47.838;12.128;2023-07-31T07:22:37;4.05;;;2.10;;
27925;SDS011;15267;47.838;12.128;2023-07-31T07:25:04;3.42;;;2.00;;
27925;SDS011;15267;47.838;12.128;2023-07-31T07:27:30;4.65;;;2.03;;
27925;SDS011;15267;47.838;12.128;2023-07-31T07:29:56;4.82;;;1.83;;
27925;SDS011;15267;47.838;12.128;2023-07-31T07:32:22;6.90;;;2.03;;
27925;SDS011;15267;47.838;12.128;2023-07-31T07:34:48;8.57;;;2.35;;
27925;SDS011;15267;47.838;12.128;2023-07-31T07:37:14;7.32;;;2.13;;
27925;SDS011;15267;47.838;12.128;2023-07-31T07:39:40;5.10;;;2.10;;
27925;SDS011;15267;47.838;12.128;2023-07-31T07:42:06;5.35;;;1.75;;
27925;SDS011;15267;47.838;12.128;2023-07-31T07:44:32;5.32;;;1.95;;
27925;SDS011;15267;47.838;12.128;2023-07-31T07:46:58;5.72;;;1.92;;
27925;SDS011;15267;47.838;12.128;2023-07-31T07:49:24;4.18;;;2.00;;
27925;SDS011;15267;47.838;12.128;2023-07-31T07:51:50;3.95;;;1.77;;
27925;SDS011;15267;47.838;12.128;2023-07-31T07:54:16;5.43;;;1.83;;
27925;SDS011;15267;47.838;12.128;2023-07-31T07:56:42;5.43;;;1.70;;
27925;SDS011;15267;47.838;12.128;2023-07-31T07:59:08;4.53;;;1.60;;
27925;SDS011;15267;47.838;12.128;2023-07-31T08:01:34;4.75;;;1.70;;
27925;SDS011;15267;47.838;12.128;2023-07-31T08:04:00;3.42;;;1.80;;
27925;SDS011;15267;47.838;12.128;2023-07-31T08:06:26;2.95;;;1.70;;
27925;SDS011;15267;47.838;12.128;2023-07-31T08:08:52;5.03;;;1.50;;
27925;SDS011;15267;47.838;12.128;2023-07-31T08:11:18;3.90;;;1.83;;
27925;SDS011;15267;47.838;12.128;2023-07-31T08:13:44;3.45;;;1.90;;
27925;SDS011;15267;47.838;12.128;2023-07-31T08:16:10;4.18;;;1.90;;
27925;SDS011;15267;47.838;12.128;2023-07-31T08:18:36;3.03;;;1.55;;
27925;SDS011;15267;47.838;12.128;2023-07-31T08:21:02;4.40;;;1.58;;
27925;SDS011;15267;47.838;12.128;2023-07-31T08:23:28;5.63;;;1.50;;
27925;SDS011;15267;47.838;12.128;2023-07-31T08:25:54;4.47;;;1.40;;
27925;SDS011;15267;47.838;12.128;2023-07-31T08:28:20;3.17;;;1.52;;
27925;SDS011;15267;47.838;12.128;2023-07-31T08:30:46;4.50;;;1.60;;
27925;SDS011;15267;47.838;12.128;2023-07-31T08:33:12;3.58;;;1.50;;
27925;SDS011;15267;47.838;12.128;2023-07-31T08:35:38;3.47;;;1.50;;
27925;SDS011;15267;47.838;12.128;2023-07-31T08:38:04;3.78;;;1.40;;
27925;SDS011;15267;47.838;12.128;2023-07-31T08:40:30;2.47;;;1.40;;
27925;SDS011;15267;47.838;12.128;2023-07-31T08:42:56;5.20;;;1.52;;
27925;SDS011;15267;47.838;12.128;2023-07-31T08:45:26;2.80;;;1.50;;
27925;SDS011;15267;47.838;12.128;2023-07-31T08:47:53;3.88;;;1.40;;
27925;SDS011;15267;47.838;12.128;2023-07-31T08:50:20;5.07;;;1.60;;
27925;SDS011;15267;47.838;12.128;2023-07-31T08:52:47;4.03;;;1.70;;
27925;SDS011;15267;47.838;12.128;2023-07-31T08:55:13;2.40;;;1.60;;
27925;SDS011;15267;47.838;12.128;2023-07-31T08:57:39;3.75;;;1.60;;
27925;SDS011;15267;47.838;12.128;2023-07-31T09:00:06;3.03;;;1.55;;
27925;SDS011;15267;47.838;12.128;2023-07-31T09:05:08;3.85;;;1.73;;
27925;SDS011;15267;47.838;12.128;2023-07-31T09:07:34;2.58;;;1.63;;
27925;SDS011;15267;47.838;12.128;2023-07-31T09:10:01;2.65;;;1.52;;
27925;SDS011;15267;47.838;12.128;2023-07-31T09:12:27;4.13;;;1.50;;
27925;SDS011;15267;47.838;12.128;2023-07-31T09:14:53;4.25;;;1.80;;
27925;SDS011;15267;47.838;12.128;2023-07-31T09:17:32;3.42;;;1.65;;
27925;SDS011;15267;47.838;12.128;2023-07-31T09:20:15;3.67;;;1.60;;
27925;SDS011;15267;47.838;12.128;2023-07-31T09:22:41;3.90;;;1.45;;
27925;SDS011;15267;47.838;12.128;2023-07-31T09:25:21;3.08;;;1.55;;
27925;SDS011;15267;47.838;12.128;2023-07-31T09:30:22;3.10;;;1.60;;
27925;SDS011;15267;47.838;12.128;2023-07-31T09:32:49;4.60;;;1.80;;
27925;SDS011;15267;47.838;12.128;2023-07-31T09:37:41;3.30;;;1.92;;
27925;SDS011;15267;47.838;12.128;2023-07-31T09:40:07;4.78;;;1.60;;
27925;SDS011;15267;47.838;12.128;2023-07-31T09:42:33;3.67;;;1.75;;
27925;SDS011;15267;47.838;12.128;2023-07-31T09:45:09;4.22;;;1.90;;
27925;SDS011;15267;47.838;12.128;2023-07-31T09:47:35;3.78;;;1.60;;
27925;SDS011;15267;47.838;12.128;2023-07-31T09:50:01;3.25;;;1.70;;
27925;SDS011;15267;47.838;12.128;2023-07-31T09:52:27;4.38;;;1.88;;
27925;SDS011;15267;47.838;12.128;2023-07-31T09:54:53;4.13;;;1.60;;
27925;SDS011;15267;47.838;12.128;2023-07-31T09:57:19;2.45;;;1.60;;
27925;SDS011;15267;47.838;12.128;2023-07-31T09:59:47;3.33;;;1.75;;
27925;SDS011;15267;47.838;12.128;2023-07-31T10:02:15;3.15;;;1.70;;
27925;SDS011;15267;47.838;12.128;2023-07-31T10:04:42;5.57;;;1.98;;
27925;SDS011;15267;47.838;12.128;2023-07-31T10:07:09;3.72;;;1.75;;
27925;SDS011;15267;47.838;12.128;2023-07-31T10:09:35;6.03;;;1.80;;
27925;SDS011;15267;47.838;12.128;2023-07-31T10:12:02;3.28;;;1.80;;
27925;SDS011;15267;47.838;12.128;2023-07-31T10:14:34;3.85;;;1.90;;
27925;SDS011;15267;47.838;12.128;2023-07-31T10:17:00;2.60;;;1.75;;
27925;SDS011;15267;47.838;12.128;2023-07-31T10:19:26;5.65;;;2.20;;
27925;SDS011;15267;47.838;12.128;2023-07-31T10:21:52;3.90;;;2.00;;
27925;SDS011;15267;47.838;12.128;2023-07-31T10:24:18;6.25;;;2.60;;
27925;SDS011;15267;47.838;12.128;2023-07-31T10:26:45;3.30;;;1.80;;
27925;SDS011;15267;47.838;12.128;2023-07-31T10:29:12;3.40;;;1.52;;
27925;SDS011;15267;47.838;12.128;2023-07-31T10:31:39;4.35;;;1.90;;
27925;SDS011;15267;47.838;12.128;2023-07-31T10:34:05;4.72;;;1.80;;
27925;SDS011;15267;47.838;12.128;2023-07-31T10:36:31;2.60;;;1.80;;
27925;SDS011;15267;47.838;12.128;2023-07-31T10:38:57;3.95;;;1.85;;
27925;SDS011;15267;47.838;12.128;2023-07-31T10:41:29;5.00;;;2.13;;
27925;SDS011;15267;47.838;12.128;2023-07-31T10:44:01;2.90;;;1.77;;
27925;SDS011;15267;47.838;12.128;2023-07-31T10:46:27;5.25;;;1.55;;
27925;SDS011;15267;47.838;12.128;2023-07-31T10:49:01;3.78;;;1.88;;
27925;SDS011;15267;47.838;12.128;2023-07-31T10:51:33;3.78;;;1.90;;
27925;SDS011;15267;47.838;12.128;2023-07-31T10:54:13;2.60;;;1.70;;
27925;SDS011;15267;47.838;12.128;2023-07-31T10:56:46;3.13;;;1.80;;
27925;SDS011;15267;47.838;12.128;2023-07-31T10:59:15;2.50;;;1.70;;
27925;SDS011;15267;47.838;12.128;2023-07-31T11:01:58;5.55;;;2.00;;
27925;SDS011;15267;47.838;12.128;2023-07-31T11:04:27;4.70;;;1.98;;
27925;SDS011;15267;47.838;12.128;2023-07-31T11:06:56;3.78;;;1.88;;
27925;SDS011;15267;47.838;12.128;2023-07-31T11:09:24;4.55;;;1.88;;
27925;SDS011;15267;47.838;12.128;2023-07-31T11:11:50;5.53;;;1.80;;
27925;SDS011;15267;47.838;12.128;2023-07-31T11:14:17;3.75;;;1.95;;
27925;SDS011;15267;47.838;12.128;2023-07-31T11:16:43;3.28;;;1.70;;
27925;SDS011;15267;47.838;12.128;2023-07-31T11:19:09;5.00;;;1.88;;
27925;SDS011;15267;47.838;12.128;2023-07-31T11:21:35;4.47;;;1.92;;
27925;SDS011;15267;47.838;12.128;2023-07-31T11:24:02;4.75;;;1.90;;
27925;SDS011;15267;47.838;12.128;2023-07-31T11:26:28;3.75;;;1.83;;
27925;SDS011;15267;47.838;12.128;2023-07-31T11:28:55;3.97;;;1.90;;
27925;SDS011;15267;47.838;12.128;2023-07-31T11:31:21;1.90;;;1.60;;
27925;SDS011;15267;47.838;12.128;2023-07-31T11:33:47;4.28;;;1.80;;
27925;SDS011;15267;47.838;12.128;2023-07-31T11:36:14;2.38;;;1.70;;
27925;SDS011;15267;47.838;12.128;2023-07-31T11:38:41;4.13;;;1.55;;
27925;SDS011;15267;47.838;12.128;2023-07-31T11:41:07;3.50;;;1.60;;
27925;SDS011;15267;47.838;12.128;2023-07-31T11:43:33;3.25;;;2.05;;
27925;SDS011;15267;47.838;12.128;2023-07-31T11:46:01;3.60;;;1.65;;
27925;SDS011;15267;47.838;12.128;2023-07-31T11:48:35;5.50;;;1.58;;
27925;SDS011;15267;47.838;12.128;2023-07-31T11:51:03;3.42;;;1.88;;
27925;SDS011;15267;47.838;12.128;2023-07-31T11:56:04;3.25;;;1.80;;
27925;SDS011;15267;47.838;12.128;2023-07-31T11:58:31;3.85;;;1.65;;
27925;SDS011;15267;47.838;12.128;2023-07-31T12:00:58;4.47;;;1.95;;
27925;SDS011;15267;47.838;12.128;2023-07-31T12:03:25;5.03;;;1.80;;
27925;SDS011;15267;47.838;12.128;2023-07-31T12:05:52;4.35;;;1.90;;
27925;SDS011;15267;47.838;12.128;2023-07-31T12:08:20;3.22;;;1.80;;
27925;SDS011;15267;47.838;12.128;2023-07-31T12:10:46;4.13;;;1.90;;
27925;SDS011;15267;47.838;12.128;2023-07-31T12:13:19;2.63;;;1.85;;
27925;SDS011;15267;47.838;12.128;2023-07-31T12:15:45;4.88;;;2.08;;
27925;SDS011;15267;47.838;12.128;2023-07-31T12:20:41;3.97;;;2.00;;
27925;SDS011;15267;47.838;12.128;2023-07-31T12:23:12;3.42;;;1.88;;
27925;SDS011;15267;47.838;12.128;2023-07-31T12:25:39;4.18;;;1.90;;
27925;SDS011;15267;47.838;12.128;2023-07-31T12:28:05;2.00;;;1.63;;
27925;SDS011;15267;47.838;12.128;2023-07-31T12:30:33;2.08;;;1.65;;
27925;SDS011;15267;47.838;12.128;2023-07-31T12:33:03;3.22;;;1.80;;
27925;SDS011;15267;47.838;12.128;2023-07-31T12:35:40;5.78;;;2.00;;
27925;SDS011;15267;47.838;12.128;2023-07-31T12:38:06;3.58;;;1.60;;
27925;SDS011;15267;47.838;12.128;2023-07-31T12:40:32;2.28;;;1.70;;
27925;SDS011;15267;47.838;12.128;2023-07-31T12:43:01;4.00;;;2.00;;
27925;SDS011;15267;47.838;12.128;2023-07-31T12:45:28;3.38;;;1.83;;
27925;SDS011;15267;47.838;12.128;2023-07-31T12:47:54;5.63;;;1.90;;
27925;SDS011;15267;47.838;12.128;2023-07-31T12:50:20;3.95;;;1.83;;
27925;SDS011;15267;47.838;12.128;2023-07-31T12:52:46;3.35;;;1.80;;
27925;SDS011;15267;47.838;12.128;2023-07-31T12:55:12;2.60;;;1.63;;
27925;SDS011;15267;47.838;12.128;2023-07-31T12:57:39;2.05;;;1.63;;
27925;SDS011;15267;47.838;12.128;2023-07-31T13:00:06;3.28;;;1.50;;
27925;SDS011;15267;47.838;12.128;2023-07-31T13:02:32;2.47;;;1.58;;
27925;SDS011;15267;47.838;12.128;2023-07-31T13:04:58;5.15;;;1.52;;
27925;SDS011;15267;47.838;12.128;2023-07-31T13:07:24;4.50;;;1.50;;
27925;SDS011;15267;47.838;12.128;2023-07-31T13:09:50;4.95;;;2.20;;
27925;SDS011;15267;47.838;12.128;2023-07-31T13:12:16;3.10;;;1.85;;
27925;SDS011;15267;47.838;12.128;2023-07-31T13:14:42;5.07;;;1.92;;
27925;SDS011;15267;47.838;12.128;2023-07-31T13:17:08;2.78;;;1.70;;
27925;SDS011;15267;47.838;12.128;2023-07-31T13:19:34;3.03;;;1.77;;
27925;SDS011;15267;47.838;12.128;2023-07-31T13:22:00;3.03;;;1.73;;
27925;SDS011;15267;47.838;12.128;2023-07-31T13:24:26;4.07;;;1.58;;
27925;SDS011;15267;47.838;12.128;2023-07-31T13:26:52;2.42;;;1.60;;
27925;SDS011;15267;47.838;12.128;2023-07-31T13:29:18;3.30;;;2.17;;
27925;SDS011;15267;47.838;12.128;2023-07-31T13:31:44;3.95;;;2.05;;
27925;SDS011;15267;47.838;12.128;2023-07-31T13:34:10;3.70;;;1.80;;
27925;SDS011;15267;47.838;12.128;2023-07-31T13:36:36;4.65;;;1.90;;
27925;SDS011;15267;47.838;12.128;2023-07-31T13:39:02;3.55;;;1.80;;
27925;SDS011;15267;47.838;12.128;2023-07-31T13:41:28;3.65;;;1.70;;
27925;SDS011;15267;47.838;12.128;2023-07-31T13:43:54;3.17;;;1.90;;
27925;SDS011;15267;47.838;12.128;2023-07-31T13:46:20;5.55;;;1.70;;
27925;SDS011;15267;47.838;12.128;2023-07-31T13:48:46;3.95;;;1.77;;
27925;SDS011;15267;47.838;12.128;2023-07-31T13:51:11;2.33;;;1.60;;
27925;SDS011;15267;47.838;12.128;2023-07-31T13:53:37;4.03;;;1.63;;
27925;SDS011;15267;47.838;12.128;2023-07-31T13:56:03;2.70;;;1.90;;
27925;SDS011;15267;47.838;12.128;2023-07-31T13:58:29;3.08;;;1.60;;
27925;SDS011;15267;47.838;12.128;2023-07-31T14:00:55;3.45;;;1.63;;
27925;SDS011;15267;47.838;12.128;2023-07-31T14:03:21;3.55;;;1.60;;
27925;SDS011;15267;47.838;12.128;2023-07-31T14:05:47;3.67;;;1.90;;
27925;SDS011;15267;47.838;12.128;2023-07-31T14:08:13;3.47;;;1.88;;
27925;SDS011;15267;47.838;12.128;2023-07-31T14:10:39;3.83;;;1.90;;
27925;SDS011;15267;47.838;12.128;2023-07-31T14:13:05;4.45;;;1.77;;
27925;SDS011;15267;47.838;12.128;2023-07-31T14:15:31;3.47;;;1.90;;
27925;SDS011;15267;47.838;12.128;2023-07-31T14:17:57;2.58;;;1.98;;
27925;SDS011;15267;47.838;12.128;2023-07-31T14:20:23;1.63;;;1.40;;
27925;SDS011;15267;47.838;12.128;2023-07-31T14:22:49;3.08;;;1.80;;
27925;SDS011;15267;47.838;12.128;2023-07-31T14:25:15;3.60;;;1.55;;
27925;SDS011;15267;47.838;12.128;2023-07-31T14:27:41;3.42;;;1.90;;
27925;SDS011;15267;47.838;12.128;2023-07-31T14:30:07;2.65;;;1.67;;
27925;SDS011;15267;47.838;12.128;2023-07-31T14:32:33;3.20;;;1.70;;
27925;SDS011;15267;47.838;12.128;2023-07-31T14:34:59;2.38;;;1.65;;
27925;SDS011;15267;47.838;12.128;2023-07-31T14:37:25;1.85;;;1.65;;
27925;SDS011;15267;47.838;12.128;2023-07-31T14:39:52;4.20;;;2.20;;
27925;SDS011;15267;47.838;12.128;2023-07-31T14:42:18;5.63;;;2.15;;
27925;SDS011;15267;47.838;12.128;2023-07-31T14:44:44;3.10;;;1.90;;
27925;SDS011;15267;47.838;12.128;2023-07-31T14:47:12;3.65;;;1.85;;
27925;SDS011;15267;47.838;12.128;2023-07-31T14:49:38;3.35;;;1.67;;
27925;SDS011;15267;47.838;12.128;2023-07-31T14:52:04;2.80;;;2.00;;